createdAt,value
2016-06-07T00:00:54.291Z,97.81
2016-06-07T00:01:54.341Z,97.71
2016-06-07T00:02:54.391Z,98.29
2016-06-07T00:03:54.423Z,97.71
2016-06-07T00:04:54.458Z,97.71
2016-06-07T00:05:55.273Z,97.42
2016-06-07T00:06:54.541Z,98.34
2016-06-07T00:07:54.574Z,98.1
2016-06-07T00:08:54.624Z,97.52
2016-06-07T00:09:54.659Z,98.29
2016-06-07T00:10:54.693Z,98.29
2016-06-07T00:11:54.727Z,98.19
2016-06-07T00:12:54.776Z,98.19
2016-06-07T00:13:54.809Z,97.71
2016-06-07T00:14:54.859Z,98.77
2016-06-07T00:15:54.893Z,98
2016-06-07T00:16:54.928Z,98.39
2016-06-07T00:17:54.976Z,98.19
2016-06-07T00:18:55.011Z,98.39
2016-06-07T00:19:55.061Z,99.06
2016-06-07T00:20:55.501Z,98.49
2016-06-07T00:21:55.129Z,98.87
2016-06-07T00:22:55.178Z,98.96
2016-06-07T00:23:55.211Z,99.06
2016-06-07T00:24:55.245Z,99.35
2016-06-07T00:25:55.295Z,99.16
2016-06-07T00:26:55.329Z,98.96
2016-06-07T00:27:55.364Z,98.77
2016-06-07T00:28:55.414Z,99.26
2016-06-07T00:29:55.447Z,99.06
2016-06-07T00:30:55.480Z,99.35
2016-06-07T00:31:55.530Z,99.93
2016-06-07T00:32:55.564Z,99.54
2016-06-07T00:33:55.614Z,99.26
2016-06-07T00:34:55.647Z,99.54
2016-06-07T00:35:56.041Z,99.59
2016-06-07T00:36:55.731Z,99.73
2016-06-07T00:37:55.766Z,99.99
2016-06-07T00:38:55.799Z,99.98
2016-06-07T00:39:55.848Z,99.78
2016-06-07T00:40:55.882Z,99.99
2016-06-07T00:41:55.916Z,99.93
2016-06-07T00:42:55.966Z,99.99
2016-06-07T00:43:56.000Z,99.99
2016-06-07T00:44:56.034Z,99.99
2016-06-07T00:45:56.084Z,99.99
2016-06-07T00:46:56.118Z,99.99
2016-06-07T00:47:56.167Z,99.99
2016-06-07T00:48:56.201Z,99.99
2016-06-07T00:49:56.234Z,99.99
2016-06-07T00:50:56.284Z,99.99
2016-06-07T00:51:56.318Z,99.99
2016-06-07T00:52:56.353Z,99.99
2016-06-07T00:53:56.402Z,99.99
2016-06-07T00:54:56.436Z,99.99
2016-06-07T00:55:56.470Z,99.99
2016-06-07T00:56:56.504Z,99.99
2016-06-07T00:57:56.553Z,99.99
2016-06-07T00:58:56.587Z,99.99
2016-06-07T00:59:56.622Z,99.99
2016-06-07T01:00:56.671Z,99.99
2016-06-07T01:01:56.705Z,99.99
2016-06-07T01:02:56.755Z,99.99
2016-06-07T01:03:56.788Z,99.99
2016-06-07T01:04:56.822Z,99.99
2016-06-07T01:05:56.871Z,99.99
2016-06-07T01:06:56.905Z,99.99
2016-06-07T01:07:56.955Z,99.99
2016-06-07T01:08:56.974Z,99.99
2016-06-07T01:09:57.024Z,99.99
2016-06-07T01:10:57.057Z,99.99
2016-06-07T01:11:57.106Z,99.99
2016-06-07T01:12:57.140Z,99.99
2016-06-07T01:13:57.174Z,99.99
2016-06-07T01:14:57.209Z,99.99
2016-06-07T01:15:57.257Z,99.99
2016-06-07T01:16:57.292Z,99.99
2016-06-07T01:17:57.326Z,99.99
2016-06-07T01:18:57.359Z,99.99
2016-06-07T01:19:57.409Z,99.99
2016-06-07T01:20:57.600Z,99.99
2016-06-07T01:21:57.493Z,99.99
2016-06-07T01:22:57.542Z,99.99
2016-06-07T01:23:57.561Z,99.99
2016-06-07T01:24:57.610Z,99.99
2016-06-07T01:25:57.645Z,99.99
2016-06-07T01:26:57.678Z,99.99
2016-06-07T01:27:57.728Z,99.99
2016-06-07T01:28:57.761Z,99.99
2016-06-07T01:29:57.795Z,99.99
2016-06-07T01:30:57.845Z,99.99
2016-06-07T01:31:57.880Z,99.99
2016-06-07T01:32:57.913Z,99.99
2016-06-07T01:33:57.963Z,99.99
2016-06-07T01:34:57.996Z,99.99
2016-06-07T01:35:58.187Z,99.99
2016-06-07T01:36:58.080Z,99.99
2016-06-07T01:37:58.114Z,99.99
2016-06-07T01:38:58.148Z,99.99
2016-06-07T01:39:58.182Z,99.99
2016-06-07T01:40:58.232Z,99.99
2016-06-07T01:41:58.266Z,99.99
2016-06-07T01:42:58.299Z,99.99
2016-06-07T01:43:58.348Z,99.99
2016-06-07T01:44:58.382Z,99.99
2016-06-07T01:45:58.417Z,99.99
2016-06-07T01:46:58.465Z,99.99
2016-06-07T01:47:58.504Z,99.99
2016-06-07T01:48:58.569Z,99.99
2016-06-07T01:49:58.632Z,99.99
2016-06-07T01:50:59.572Z,99.99
2016-06-07T01:51:58.714Z,99.99
2016-06-07T01:52:58.777Z,99.99
2016-06-07T01:53:58.832Z,99.99
2016-06-07T01:54:58.856Z,99.99
2016-06-07T01:55:58.896Z,99.99
2016-06-07T01:56:58.794Z,99.99
2016-06-07T01:57:58.989Z,99.99
2016-06-07T01:58:59.024Z,99.99
2016-06-07T01:59:59.075Z,99.99
2016-06-07T02:00:59.111Z,99.99
2016-06-07T02:01:59.148Z,99.99
2016-06-07T02:02:59.199Z,99.99
2016-06-07T02:03:59.234Z,99.99
2016-06-07T02:04:59.113Z,99.99
2016-06-07T02:05:59.335Z,99.99
2016-06-07T02:07:00.041Z,99.99
2016-06-07T02:07:59.388Z,99.99
2016-06-07T02:08:59.438Z,99.99
2016-06-07T02:09:59.473Z,99.99
2016-06-07T02:10:59.506Z,99.99
2016-06-07T02:11:59.541Z,99.99
2016-06-07T02:12:59.591Z,99.99
2016-06-07T02:13:59.625Z,99.99
2016-06-07T02:14:59.658Z,99.99
2016-06-07T02:15:59.708Z,99.99
2016-06-07T02:16:59.757Z,99.99
2016-06-07T02:17:59.777Z,99.99
2016-06-07T02:18:59.826Z,99.99
2016-06-07T02:19:59.860Z,99.99
2016-06-07T02:20:59.909Z,99.99
2016-06-07T02:21:59.990Z,99.99
2016-06-07T02:22:59.977Z,99.99
2016-06-07T02:24:00.012Z,99.99
2016-06-07T02:25:00.045Z,99.99
2016-06-07T02:26:00.095Z,99.99
2016-06-07T02:27:00.145Z,99.99
2016-06-07T02:28:00.178Z,99.99
2016-06-07T02:29:00.212Z,99.99
2016-06-07T02:30:00.245Z,99.99
2016-06-07T02:31:00.295Z,99.99
2016-06-07T02:32:00.329Z,99.99
2016-06-07T02:33:00.364Z,99.99
2016-06-07T02:34:00.398Z,99.99
2016-06-07T02:35:00.447Z,99.99
2016-06-07T02:36:00.481Z,99.99
2016-06-07T02:37:00.639Z,99.99
2016-06-07T02:38:00.564Z,99.99
2016-06-07T02:39:00.598Z,99.99
2016-06-07T02:40:00.648Z,99.99
2016-06-07T02:41:00.682Z,99.99
2016-06-07T02:42:00.731Z,99.99
2016-06-07T02:43:00.766Z,99.99
2016-06-07T02:44:00.799Z,99.99
2016-06-07T02:45:00.849Z,99.99
2016-06-07T02:46:00.867Z,99.99
2016-06-07T02:47:00.916Z,99.99
2016-06-07T02:48:00.951Z,99.99
2016-06-07T02:49:00.999Z,99.99
2016-06-07T02:50:01.035Z,99.99
2016-06-07T02:51:01.147Z,99.99
2016-06-07T02:52:01.101Z,99.99
2016-06-07T02:53:01.152Z,99.99
2016-06-07T02:54:01.185Z,99.99
2016-06-07T02:55:01.220Z,99.99
2016-06-07T02:56:01.269Z,99.99
2016-06-07T02:57:01.303Z,99.99
2016-06-07T02:58:01.337Z,99.99
2016-06-07T02:59:01.387Z,99.99
2016-06-07T03:00:01.421Z,99.99
2016-06-07T03:01:01.470Z,99.99
2016-06-07T03:02:01.504Z,99.99
2016-06-07T03:03:01.537Z,99.99
2016-06-07T03:04:01.572Z,99.99
2016-06-07T03:05:01.637Z,99.99
2016-06-07T03:06:01.655Z,99.99
2016-06-07T03:07:01.689Z,99.99
2016-06-07T03:08:01.723Z,99.99
2016-06-07T03:09:01.773Z,99.99
2016-06-07T03:10:01.806Z,99.99
2016-06-07T03:11:01.856Z,99.99
2016-06-07T03:12:01.890Z,99.99
2016-06-07T03:13:01.924Z,99.99
2016-06-07T03:14:01.958Z,99.99
2016-06-07T03:15:02.007Z,99.99
2016-06-07T03:16:02.041Z,99.99
2016-06-07T03:17:02.075Z,99.99
2016-06-07T03:18:02.125Z,99.99
2016-06-07T03:19:02.003Z,99.99
2016-06-07T03:20:02.193Z,99.99
2016-06-07T03:21:02.227Z,99.99
2016-06-07T03:22:02.261Z,99.99
2016-06-07T03:23:02.310Z,99.99
2016-06-07T03:24:02.344Z,99.99
2016-06-07T03:25:02.379Z,99.99
2016-06-07T03:26:02.429Z,99.99
2016-06-07T03:27:02.462Z,99.99
2016-06-07T03:28:02.496Z,99.99
2016-06-07T03:29:02.545Z,99.99
2016-06-07T03:30:02.579Z,99.99
2016-06-07T03:31:02.629Z,99.99
2016-06-07T03:32:02.648Z,99.99
2016-06-07T03:33:02.697Z,99.99
2016-06-07T03:34:02.731Z,99.99
2016-06-07T03:35:02.764Z,99.99
2016-06-07T03:36:03.376Z,99.99
2016-06-07T03:37:02.864Z,99.99
2016-06-07T03:38:02.881Z,99.99
2016-06-07T03:39:02.931Z,99.99
2016-06-07T03:40:02.966Z,99.99
2016-06-07T03:41:03.000Z,99.99
2016-06-07T03:42:03.049Z,99.99
2016-06-07T03:43:03.083Z,99.99
2016-06-07T03:44:03.117Z,99.99
2016-06-07T03:45:03.150Z,99.99
2016-06-07T03:46:03.185Z,99.99
2016-06-07T03:47:03.235Z,99.99
2016-06-07T03:48:03.268Z,99.99
2016-06-07T03:49:03.318Z,99.99
2016-06-07T03:50:03.352Z,99.99
2016-06-07T03:51:03.574Z,99.99
2016-06-07T03:52:03.419Z,99.99
2016-06-07T03:53:03.454Z,99.99
2016-06-07T03:54:03.488Z,99.99
2016-06-07T03:55:03.537Z,99.99
2016-06-07T03:56:03.571Z,99.99
2016-06-07T03:57:03.604Z,99.99
2016-06-07T03:58:03.654Z,99.99
2016-06-07T03:59:03.688Z,99.99
2016-06-07T04:00:03.723Z,99.99
2016-06-07T04:01:03.773Z,99.99
2016-06-07T04:02:03.806Z,99.99
2016-06-07T04:03:03.840Z,99.99
2016-06-07T04:04:03.889Z,99.99
2016-06-07T04:05:03.923Z,99.99
2016-06-07T04:06:03.957Z,99.99
2016-06-07T04:07:04.007Z,99.99
2016-06-07T04:08:04.041Z,99.99
2016-06-07T04:09:04.075Z,99.99
2016-06-07T04:10:04.109Z,99.99
2016-06-07T04:11:04.142Z,99.99
2016-06-07T04:12:04.192Z,99.99
2016-06-07T04:13:04.070Z,99.99
2016-06-07T04:14:04.276Z,99.99
2016-06-07T04:15:04.310Z,99.99
2016-06-07T04:16:04.343Z,99.35
2016-06-07T04:17:04.378Z,98.86
2016-06-07T04:18:04.428Z,98.63
2016-06-07T04:19:04.461Z,99.25
2016-06-07T04:20:04.510Z,98.77
2016-06-07T04:21:04.544Z,98.58
2016-06-07T04:22:04.454Z,98.48
2016-06-07T04:23:04.613Z,98.29
2016-06-07T04:24:04.663Z,98.68
2016-06-07T04:25:04.696Z,98.48
2016-06-07T04:26:04.729Z,99.06
2016-06-07T04:27:04.780Z,98.96
2016-06-07T04:28:04.813Z,98.68
2016-06-07T04:29:04.863Z,98.48
2016-06-07T04:30:04.896Z,98.48
2016-06-07T04:31:04.932Z,98.58
2016-06-07T04:32:04.981Z,98.68
2016-06-07T04:33:05.014Z,98.1
2016-06-07T04:34:05.049Z,98.1
2016-06-07T04:35:05.097Z,98.05
2016-06-07T04:36:05.132Z,98.19
2016-06-07T04:37:05.931Z,97.96
2016-06-07T04:38:05.215Z,97.57
2016-06-07T04:39:05.249Z,96.61
2016-06-07T04:40:05.284Z,96.99
2016-06-07T04:41:05.333Z,96.9
2016-06-07T04:42:05.367Z,96.61
2016-06-07T04:43:05.400Z,96.32
2016-06-07T04:44:05.451Z,96.32
2016-06-07T04:45:05.483Z,96.99
2016-06-07T04:46:05.533Z,96.51
2016-06-07T04:47:05.567Z,96.32
2016-06-07T04:48:05.602Z,96.7
2016-06-07T04:49:05.652Z,96.03
2016-06-07T04:50:05.685Z,96.22
2016-06-07T04:51:05.719Z,96.32
2016-06-07T04:52:05.768Z,96.99
2016-06-07T04:53:05.802Z,96.22
2016-06-07T04:54:05.852Z,95.55
2016-06-07T04:55:05.871Z,95.07
2016-06-07T04:56:05.920Z,95.36
2016-06-07T04:57:05.969Z,95.17
2016-06-07T04:58:06.004Z,95.36
2016-06-07T04:59:05.882Z,95.26
2016-06-07T05:00:06.102Z,95.26
2016-06-07T05:01:06.121Z,95.26
2016-06-07T05:02:06.154Z,95.21
2016-06-07T05:03:06.204Z,94.98
2016-06-07T05:04:06.238Z,94.78
2016-06-07T05:05:06.273Z,95.45
2016-06-07T05:06:06.323Z,95.02
2016-06-07T05:07:06.356Z,95.02
2016-06-07T05:08:06.406Z,94.54
2016-06-07T05:09:06.439Z,94.73
2016-06-07T05:10:06.473Z,93.87
2016-06-07T05:11:06.507Z,93.87
2016-06-07T05:12:06.556Z,93.77
2016-06-07T05:13:06.434Z,93.19
2016-06-07T05:14:06.640Z,93.48
2016-06-07T05:15:06.675Z,93
2016-06-07T05:16:06.708Z,93.68
2016-06-07T05:17:06.757Z,92.91
2016-06-07T05:18:06.792Z,92.43
2016-06-07T05:19:06.825Z,93
2016-06-07T05:20:06.891Z,93.1
2016-06-07T05:21:06.924Z,93.48
2016-06-07T05:22:07.272Z,93.96
2016-06-07T05:23:06.993Z,93
2016-06-07T05:24:07.042Z,93
2016-06-07T05:25:07.076Z,93.29
2016-06-07T05:26:07.110Z,93.1
2016-06-07T05:27:07.160Z,93.19
2016-06-07T05:28:07.038Z,92.91
2016-06-07T05:29:07.243Z,91.94
2016-06-07T05:30:07.276Z,91.89
2016-06-07T05:31:07.326Z,91.22
2016-06-07T05:32:07.360Z,90.93
2016-06-07T05:33:07.395Z,91.07
2016-06-07T05:34:07.429Z,90.73
2016-06-07T05:35:07.479Z,91.03
2016-06-07T05:36:07.512Z,90.16
2016-06-07T05:37:07.701Z,90.26
2016-06-07T05:38:07.596Z,89.87
2016-06-07T05:39:07.645Z,90.01
2016-06-07T05:40:07.695Z,89.34
2016-06-07T05:41:07.728Z,89.15
2016-06-07T05:42:08.262Z,87.7
2016-06-07T05:43:07.797Z,88.76
2016-06-07T05:44:07.846Z,88.38
2016-06-07T05:45:07.880Z,87.6
2016-06-07T05:46:07.930Z,87.99
2016-06-07T05:47:07.963Z,87.6
2016-06-07T05:48:07.997Z,87.51
2016-06-07T05:49:08.031Z,88.28
2016-06-07T05:50:08.080Z,88.57
2016-06-07T05:51:08.130Z,88.42
2016-06-07T05:52:09.055Z,88.32
2016-06-07T05:53:08.199Z,87.07
2016-06-07T05:54:08.248Z,86.21
2016-06-07T05:55:08.282Z,84.7
2016-06-07T05:56:08.316Z,84.32
2016-06-07T05:57:08.366Z,84.7
2016-06-07T05:58:08.416Z,83.55
2016-06-07T05:59:08.465Z,83.5
2016-06-07T06:00:08.498Z,82.62
2016-06-07T06:01:08.533Z,81.66
2016-06-07T06:02:08.566Z,81.02
2016-06-07T06:03:08.616Z,80.54
2016-06-07T06:04:08.649Z,80.06
2016-06-07T06:05:08.699Z,81.32
2016-06-07T06:06:08.749Z,81.85
2016-06-07T06:07:09.362Z,81.47
2016-06-07T06:08:09.082Z,81.51
2016-06-07T06:09:08.867Z,80.74
2016-06-07T06:10:08.901Z,81.51
2016-06-07T06:11:08.950Z,80.93
2016-06-07T06:12:08.984Z,80.06
2016-06-07T06:13:08.878Z,80.2
2016-06-07T06:14:09.067Z,80.78
2016-06-07T06:15:09.117Z,80
2016-06-07T06:16:09.150Z,79.43
2016-06-07T06:17:09.217Z,79.62
2016-06-07T06:18:09.234Z,79.91
2016-06-07T06:19:09.300Z,80.93
2016-06-07T06:20:09.333Z,81.6
2016-06-07T06:21:09.367Z,82.53
2016-06-07T06:22:09.433Z,83.11
2016-06-07T06:23:09.451Z,83.69
2016-06-07T06:24:09.485Z,83.26
2016-06-07T06:25:09.535Z,82.68
2016-06-07T06:26:09.584Z,81.91
2016-06-07T06:27:09.618Z,82.01
2016-06-07T06:28:09.668Z,81.37
2016-06-07T06:29:09.701Z,80.79
2016-06-07T06:30:09.736Z,81.02
2016-06-07T06:31:09.801Z,81.22
2016-06-07T06:32:09.834Z,81.12
2016-06-07T06:33:09.869Z,81.57
2016-06-07T06:34:09.918Z,81.47
2016-06-07T06:35:09.951Z,82.05
2016-06-07T06:36:09.985Z,81.72
2016-06-07T06:37:10.067Z,81.57
2016-06-07T06:38:10.085Z,80.79
2016-06-07T06:39:10.118Z,79.68
2016-06-07T06:40:10.168Z,79.19
2016-06-07T06:41:10.202Z,78.66
2016-06-07T06:42:10.252Z,78.75
2016-06-07T06:43:10.287Z,79.43
2016-06-07T06:44:10.336Z,78.46
2016-06-07T06:45:10.369Z,77.78
2016-06-07T06:46:10.404Z,77.69
2016-06-07T06:47:10.453Z,78.17
2016-06-07T06:48:10.486Z,78.46
2016-06-07T06:49:10.381Z,79.87
2016-06-07T06:50:10.586Z,78.61
2016-06-07T06:51:10.620Z,79
2016-06-07T06:52:11.419Z,77.88
2016-06-07T06:53:10.720Z,78.61
2016-06-07T06:54:10.597Z,77.55
2016-06-07T06:55:10.786Z,76.2
2016-06-07T06:56:10.822Z,76.5
2016-06-07T06:57:10.871Z,76.59
2016-06-07T06:58:10.920Z,76.2
2016-06-07T06:59:10.954Z,76.68
2016-06-07T07:00:11.003Z,76.78
2016-06-07T07:01:11.038Z,77.46
2016-06-07T07:02:11.088Z,77.55
2016-06-07T07:03:11.121Z,77.98
2016-06-07T07:04:11.171Z,76.63
2016-06-07T07:05:11.205Z,76.43
2016-06-07T07:06:11.254Z,76.53
2016-06-07T07:07:11.288Z,77.21
2016-06-07T07:08:11.181Z,76.15
2016-06-07T07:09:11.371Z,75.02
2016-06-07T07:10:11.421Z,75.35
2016-06-07T07:11:11.454Z,75.16
2016-06-07T07:12:11.504Z,74.96
2016-06-07T07:13:11.539Z,73.9
2016-06-07T07:14:11.588Z,73.61
2016-06-07T07:15:11.622Z,74.48
2016-06-07T07:16:11.672Z,74.35
2016-06-07T07:17:11.706Z,74.1
2016-06-07T07:18:11.755Z,73.96
2016-06-07T07:19:11.789Z,73.28
2016-06-07T07:20:11.838Z,74.06
2016-06-07T07:21:11.889Z,72.61
2016-06-07T07:22:11.922Z,73.28
2016-06-07T07:23:11.971Z,73.38
2016-06-07T07:24:12.006Z,73.48
2016-06-07T07:25:12.055Z,73.71
2016-06-07T07:26:12.089Z,74.77
2016-06-07T07:27:12.138Z,73.9
2016-06-07T07:28:12.172Z,74.68
2016-06-07T07:29:12.207Z,73.13
2016-06-07T07:30:12.256Z,73.61
2016-06-07T07:31:12.305Z,73.13
2016-06-07T07:32:12.355Z,72.84
2016-06-07T07:33:12.389Z,72.16
2016-06-07T07:34:12.424Z,71.72
2016-06-07T07:35:12.457Z,71.81
2016-06-07T07:36:12.507Z,70.56
2016-06-07T07:37:13.322Z,71.14
2016-06-07T07:38:12.793Z,71.91
2016-06-07T07:39:12.639Z,71.14
2016-06-07T07:40:12.673Z,70.23
2016-06-07T07:41:12.724Z,71.14
2016-06-07T07:42:12.757Z,69.01
2016-06-07T07:43:12.807Z,67.24
2016-06-07T07:44:12.840Z,67.43
2016-06-07T07:45:12.890Z,67.43
2016-06-07T07:46:12.923Z,65.17
2016-06-07T07:47:12.974Z,60.97
2016-06-07T07:48:13.023Z,57.44
2016-06-07T07:49:13.056Z,55.58
2016-06-07T07:50:13.106Z,54.35
2016-06-07T07:51:13.141Z,51.39
2016-06-07T07:52:13.644Z,50.16
2016-06-07T07:53:13.255Z,48.1
2016-06-07T07:54:13.274Z,46.89
2016-06-07T07:55:13.323Z,46.82
2016-06-07T07:56:13.357Z,47.17
2016-06-07T07:57:13.407Z,46.85
2016-06-07T07:58:13.441Z,44.16
2016-06-07T07:59:13.506Z,42.76
2016-06-07T08:00:13.540Z,42.11
2016-06-07T08:01:13.589Z,42.9
2016-06-07T08:02:13.639Z,40.25
2016-06-07T08:03:13.688Z,40.16
2016-06-07T08:04:13.738Z,40.45
2016-06-07T08:05:13.787Z,38.49
2016-06-07T08:06:13.821Z,40.14
2016-06-07T08:07:14.497Z,41.46
2016-06-07T08:08:14.077Z,40.7
2016-06-07T08:09:13.971Z,38.49
2016-06-07T08:10:14.020Z,39.78
2016-06-07T08:11:14.070Z,40.9
2016-06-07T08:12:14.119Z,39.62
2016-06-07T08:13:14.168Z,39.37
2016-06-07T08:14:14.234Z,39.07
2016-06-07T08:15:14.267Z,35.47
2016-06-07T08:16:14.317Z,37.05
2016-06-07T08:17:14.367Z,38.12
2016-06-07T08:18:14.417Z,39.82
2016-06-07T08:19:14.482Z,39.39
2016-06-07T08:20:14.515Z,38.43
2016-06-07T08:21:14.564Z,36.71
2016-06-07T08:22:14.958Z,35.57
2016-06-07T08:23:14.837Z,33.53
2016-06-07T08:24:14.714Z,32.66
2016-06-07T08:25:14.763Z,33.97
2016-06-07T08:26:14.813Z,36.82
2016-06-07T08:27:14.878Z,37.92
2016-06-07T08:28:14.927Z,40.11
2016-06-07T08:29:14.978Z,39.39
2016-06-07T08:30:15.027Z,36.96
2016-06-07T08:31:15.077Z,36.41
2016-06-07T08:32:15.126Z,36.04
2016-06-07T08:33:15.175Z,36.04
2016-06-07T08:34:15.224Z,36.84
2016-06-07T08:35:15.290Z,36.84
2016-06-07T08:36:15.184Z,37.27
2016-06-07T08:37:15.233Z,39.47
2016-06-07T08:38:15.454Z,38
2016-06-07T08:39:15.488Z,38.23
2016-06-07T08:40:15.553Z,38.82
2016-06-07T08:41:15.604Z,39.17
2016-06-07T08:42:15.653Z,36.47
2016-06-07T08:43:15.702Z,33.77
2016-06-07T08:44:15.751Z,33.72
2016-06-07T08:45:15.817Z,33.62
2016-06-07T08:46:15.960Z,31.97
2016-06-07T08:47:15.917Z,32.59
2016-06-07T08:48:15.981Z,32.87
2016-06-07T08:49:16.015Z,31.51
2016-06-07T08:50:16.080Z,32.67
2016-06-07T08:51:16.131Z,35.36
2016-06-07T08:52:16.039Z,37.05
2016-06-07T08:53:16.245Z,38.6
2016-06-07T08:54:16.294Z,38.1
2016-06-07T08:55:16.344Z,40.21
2016-06-07T08:56:16.394Z,41.15
2016-06-07T08:57:16.444Z,42.36
2016-06-07T08:58:16.508Z,43.73
2016-06-07T08:59:16.558Z,46.53
2016-06-07T09:00:16.452Z,45.15
2016-06-07T09:01:16.657Z,43.99
2016-06-07T09:02:16.722Z,44.02
2016-06-07T09:03:16.756Z,43.63
2016-06-07T09:04:16.821Z,43.36
2016-06-07T09:05:16.871Z,42.79
2016-06-07T09:06:16.921Z,41.17
2016-06-07T09:07:17.782Z,40.97
2016-06-07T09:08:16.879Z,41
2016-06-07T09:09:16.929Z,39.09
2016-06-07T09:10:17.134Z,39.22
2016-06-07T09:11:17.185Z,39.27
2016-06-07T09:12:17.234Z,39.94
2016-06-07T09:13:17.299Z,39.43
2016-06-07T09:14:17.348Z,38
2016-06-07T09:15:17.382Z,39.19
2016-06-07T09:16:17.448Z,42.07
2016-06-07T09:17:17.512Z,41.62
2016-06-07T09:18:17.546Z,41.13
2016-06-07T09:19:17.596Z,43.07
2016-06-07T09:20:17.645Z,42.73
2016-06-07T09:21:17.712Z,40.82
2016-06-07T09:22:17.761Z,38.84
2016-06-07T09:23:18.716Z,37.21
2016-06-07T09:24:17.875Z,38.66
2016-06-07T09:25:17.925Z,42.15
2016-06-07T09:26:17.959Z,42.87
2016-06-07T09:27:18.025Z,43.41
2016-06-07T09:28:18.073Z,42.36
2016-06-07T09:29:18.122Z,43.16
2016-06-07T09:30:18.188Z,43.63
2016-06-07T09:31:18.239Z,41.03
2016-06-07T09:32:18.288Z,38.47
2016-06-07T09:33:18.337Z,36.68
2016-06-07T09:34:18.387Z,36.82
2016-06-07T09:35:18.436Z,37.58
2016-06-07T09:36:18.485Z,37.37
2016-06-07T09:37:18.551Z,39.11
2016-06-07T09:38:19.069Z,37.33
2016-06-07T09:39:18.649Z,35.5
2016-06-07T09:40:18.699Z,35.24
2016-06-07T09:41:18.749Z,36.11
2016-06-07T09:42:18.815Z,33.98
2016-06-07T09:43:18.863Z,34.22
2016-06-07T09:44:18.913Z,32.95
2016-06-07T09:45:18.962Z,31.69
2016-06-07T09:46:19.013Z,32.41
2016-06-07T09:47:19.078Z,34.69
2016-06-07T09:48:19.127Z,35.21
2016-06-07T09:49:19.193Z,34.83
2016-06-07T09:50:19.242Z,35.11
2016-06-07T09:51:19.292Z,33.97
2016-06-07T09:52:19.357Z,36.74
2016-06-07T09:53:19.234Z,35.33
2016-06-07T09:54:19.456Z,38.39
2016-06-07T09:55:19.506Z,39.19
2016-06-07T09:56:19.555Z,39.43
2016-06-07T09:57:19.605Z,40.03
2016-06-07T09:58:19.654Z,40.14
2016-06-07T09:59:19.735Z,38.29
2016-06-07T10:00:19.769Z,35.91
2016-06-07T10:01:19.819Z,33.7
2016-06-07T10:02:19.868Z,33.65
2016-06-07T10:03:19.933Z,34.9
2016-06-07T10:04:19.983Z,36.83
2016-06-07T10:05:20.033Z,37.35
2016-06-07T10:06:20.097Z,38.49
2016-06-07T10:07:20.147Z,38.08
2016-06-07T10:08:20.572Z,38.31
2016-06-07T10:09:20.263Z,37.13
2016-06-07T10:10:20.311Z,36.49
2016-06-07T10:11:20.376Z,35.8
2016-06-07T10:12:20.410Z,33.48
2016-06-07T10:13:20.476Z,31.95
2016-06-07T10:14:20.541Z,30.62
2016-06-07T10:15:20.591Z,30.65
2016-06-07T10:16:20.640Z,28.7
2016-06-07T10:17:20.690Z,28.72
2016-06-07T10:18:40.052Z,29.89
2016-06-07T10:19:20.802Z,29.76
2016-06-07T10:20:20.853Z,30.73
2016-06-07T10:21:20.933Z,28.37
2016-06-07T10:22:20.966Z,28
2016-06-07T10:23:21.017Z,29.39
2016-06-07T10:24:21.082Z,32.69
2016-06-07T10:25:21.146Z,35.16
2016-06-07T10:26:21.197Z,36.86
2016-06-07T10:27:21.262Z,38.16
2016-06-07T10:28:21.140Z,40.21
2016-06-07T10:29:21.376Z,40.76
2016-06-07T10:30:21.410Z,41.64
2016-06-07T10:31:21.459Z,41.91
2016-06-07T10:32:21.526Z,42.29
2016-06-07T10:33:21.575Z,42.34
2016-06-07T10:34:21.640Z,43.47
2016-06-07T10:35:21.690Z,43.27
2016-06-07T10:36:21.739Z,45.42
2016-06-07T10:37:21.789Z,46.64
2016-06-07T10:38:22.072Z,46.81
2016-06-07T10:39:21.888Z,45.67
2016-06-07T10:40:21.953Z,44.89
2016-06-07T10:41:22.003Z,45.15
2016-06-07T10:42:22.053Z,45.37
2016-06-07T10:43:22.102Z,46.23
2016-06-07T10:44:22.151Z,47.96
2016-06-07T10:45:22.201Z,49.12
2016-06-07T10:46:22.266Z,47.1
2016-06-07T10:47:22.316Z,46.83
2016-06-07T10:48:22.349Z,46.47
2016-06-07T10:49:22.259Z,46.37
2016-06-07T10:50:22.449Z,46.76
2016-06-07T10:51:22.499Z,45.88
2016-06-07T10:52:22.547Z,46.17
2016-06-07T10:53:22.879Z,46.64
2016-06-07T10:54:22.646Z,46.05
2016-06-07T10:55:22.709Z,46.51
2016-06-07T10:56:22.774Z,45.54
2016-06-07T10:57:22.838Z,46.23
2016-06-07T10:58:22.903Z,46.78
2016-06-07T10:59:22.968Z,47.93
2016-06-07T11:00:23.024Z,48.1
2016-06-07T11:01:23.094Z,49.17
2016-06-07T11:02:23.133Z,50.14
2016-06-07T11:03:23.189Z,49.56
2016-06-07T11:04:23.244Z,49.37
2016-06-07T11:05:23.280Z,48.61
2016-06-07T11:06:23.347Z,48.32
2016-06-07T11:07:23.399Z,49.58
2016-06-07T11:08:23.435Z,48.22
2016-06-07T11:09:23.487Z,48.05
2016-06-07T11:10:23.537Z,47.96
2016-06-07T11:11:23.571Z,47.76
2016-06-07T11:12:23.622Z,49.8
2016-06-07T11:13:23.673Z,49.24
2016-06-07T11:14:23.721Z,48.07
2016-06-07T11:15:23.616Z,48.07
2016-06-07T11:16:23.822Z,47.98
2016-06-07T11:17:23.872Z,47.96
2016-06-07T11:18:23.906Z,47.74
2016-06-07T11:19:23.956Z,48.03
2016-06-07T11:20:24.006Z,49.78
2016-06-07T11:21:24.056Z,48.8
2016-06-07T11:22:24.089Z,50.07
2016-06-07T11:23:24.373Z,50.46
2016-06-07T11:24:24.469Z,49.61
2016-06-07T11:25:24.238Z,49.51
2016-06-07T11:26:24.288Z,47.1
2016-06-07T11:27:24.337Z,49.9
2016-06-07T11:28:24.231Z,49.19
2016-06-07T11:29:24.421Z,48.05
2016-06-07T11:30:24.471Z,48.85
2016-06-07T11:31:24.519Z,48.17
2016-06-07T11:32:24.555Z,48.46
2016-06-07T11:33:24.604Z,48.07
2016-06-07T11:34:24.653Z,48.19
2016-06-07T11:35:24.702Z,48.19
2016-06-07T11:36:24.752Z,49.76
2016-06-07T11:37:24.801Z,48.49
2016-06-07T11:38:24.851Z,46.15
2016-06-07T11:39:24.901Z,47.13
2016-06-07T11:40:24.934Z,46.73
2016-06-07T11:41:24.984Z,48.07
2016-06-07T11:42:25.034Z,48.85
2016-06-07T11:43:25.068Z,48.17
2016-06-07T11:44:25.118Z,46.64
2016-06-07T11:45:25.182Z,47.9
2016-06-07T11:46:25.217Z,50.14
2016-06-07T11:47:25.266Z,47.15
2016-06-07T11:48:25.315Z,45.88
2016-06-07T11:49:25.365Z,45.28
2016-06-07T11:50:25.415Z,45.94
2016-06-07T11:51:25.449Z,46.44
2016-06-07T11:52:25.498Z,45.37
2016-06-07T11:53:25.548Z,46.56
2016-06-07T11:54:25.441Z,44.27
2016-06-07T11:55:25.647Z,40.11
2016-06-07T11:56:25.696Z,39.45
2016-06-07T11:57:25.731Z,38.9
2016-06-07T11:58:25.780Z,40.17
2016-06-07T11:59:25.830Z,38.61
2016-06-07T12:00:25.880Z,38.69
2016-06-07T12:01:25.944Z,39.16
2016-06-07T12:02:25.994Z,37.5
2016-06-07T12:03:26.027Z,36.77
2016-06-07T12:04:26.077Z,36.33
2016-06-07T12:05:26.127Z,37.43
2016-06-07T12:06:26.177Z,39.39
2016-06-07T12:07:26.242Z,38.8
2016-06-07T12:08:26.432Z,39.51
2016-06-07T12:09:26.341Z,37.23
2016-06-07T12:10:26.390Z,35.45
2016-06-07T12:11:26.440Z,33.74
2016-06-07T12:12:26.504Z,32.69
2016-06-07T12:13:26.554Z,32.38
2016-06-07T12:14:26.604Z,32.17
2016-06-07T12:15:26.654Z,32.57
2016-06-07T12:16:26.548Z,31.23
2016-06-07T12:17:26.768Z,29.87
2016-06-07T12:18:26.818Z,32.17
2016-06-07T12:19:26.868Z,32.78
2016-06-07T12:20:26.933Z,31.87
2016-06-07T12:21:26.826Z,32.17
2016-06-07T12:22:27.032Z,32.37
2016-06-07T12:23:27.098Z,33.34
2016-06-07T12:24:27.022Z,33.51
2016-06-07T12:25:27.212Z,33.51
2016-06-07T12:26:27.262Z,31.77
2016-06-07T12:27:27.311Z,32.89
2016-06-07T12:28:27.377Z,33.43
2016-06-07T12:29:27.425Z,35.03
2016-06-07T12:30:27.475Z,32.9
2016-06-07T12:31:27.541Z,32.53
2016-06-07T12:32:27.591Z,30.99
2016-06-07T12:33:27.655Z,30.24
2016-06-07T12:34:27.689Z,29.94
2016-06-07T12:35:27.754Z,28.96
2016-06-07T12:36:27.804Z,30.63
2016-06-07T12:37:27.713Z,32.74
2016-06-07T12:38:28.199Z,31.07
2016-06-07T12:39:27.827Z,29.64
2016-06-07T12:40:27.877Z,29.96
2016-06-07T12:41:28.083Z,30.15
2016-06-07T12:42:28.149Z,29.58
2016-06-07T12:43:28.198Z,30.97
2016-06-07T12:44:28.263Z,29.66
2016-06-07T12:45:28.312Z,29.37
2016-06-07T12:46:28.378Z,28.51
2016-06-07T12:47:28.428Z,29.11
2016-06-07T12:48:28.477Z,28.23
2016-06-07T12:49:28.543Z,29.23
2016-06-07T12:50:28.592Z,29.27
2016-06-07T12:51:28.642Z,28.99
2016-06-07T12:52:28.707Z,27.94
2016-06-07T12:53:28.772Z,28.13
2016-06-07T12:54:28.822Z,26.65
2016-06-07T12:55:28.886Z,27.37
2016-06-07T12:56:28.936Z,27.76